Time;durP1;ratioP1;P1;durP2;ratioP2;P2;SDS_P1;SDS_P2;PMS_P1;PMS_P2;Temp;Humidity;BMP_temperature;BMP_pressure;BME280_temperature;BME280_humidity;BME280_pressure;Samples;Min_cycle;Max_cycle;Signal;HPM_P1;HPM_P2
2023/03/24 00:01:48;;;;;;;1999.90;999.90;;;13.20;99.90;;;;;;5088607;28;20435;-68
2023/03/24 00:04:15;;;;;;;1999.90;999.90;;;13.40;99.90;;;;;;5082739;28;20413;-68
2023/03/24 00:06:42;;;;;;;1999.90;999.90;;;13.20;99.90;;;;;;5080048;28;20894;-69
2023/03/24 00:09:08;;;;;;;1999.90;999.90;;;13.20;99.90;;;;;;5085829;28;20418;-69
2023/03/24 00:11:37;;;;;;;1999.90;999.90;;;13.10;99.90;;;;;;5085367;28;20430;-68
2023/03/24 00:14:04;;;;;;;1999.90;999.90;;;13.10;99.90;;;;;;5080742;28;20497;-68
2023/03/24 00:16:33;;;;;;;1999.90;999.90;;;12.80;99.90;;;;;;5081799;28;20423;-68
2023/03/24 00:19:00;;;;;;;1999.90;999.90;;;12.80;99.90;;;;;;5084188;28;20417;-68
2023/03/24 00:21:27;;;;;;;1999.90;999.90;;;12.70;99.90;;;;;;5090352;28;20421;-68
2023/03/24 00:23:57;;;;;;;1999.90;999.90;;;12.60;99.90;;;;;;5077843;28;20452;-68
2023/03/24 00:26:24;;;;;;;1999.90;999.90;;;12.60;99.90;;;;;;5072719;28;20415;-69
2023/03/24 00:28:53;;;;;;;1999.90;999.90;;;12.60;99.90;;;;;;5082906;28;20417;-71
2023/03/24 00:31:20;;;;;;;1999.90;999.90;;;12.60;99.90;;;;;;5090862;28;20414;-69
2023/03/24 00:33:49;;;;;;;1999.90;999.90;;;12.70;99.90;;;;;;5073630;28;20820;-68
2023/03/24 00:36:18;;;;;;;1999.90;999.90;;;12.60;99.90;;;;;;5087059;28;20440;-68
2023/03/24 00:38:46;;;;;;;1999.90;999.90;;;12.60;99.90;;;;;;5086513;28;20789;-69
2023/03/24 00:41:13;;;;;;;1999.90;999.90;;;12.60;99.90;;;;;;5083744;28;20425;-71
2023/03/24 00:43:40;;;;;;;1999.90;999.90;;;12.40;99.90;;;;;;5073739;28;20801;-70
2023/03/24 00:46:12;;;;;;;1999.90;999.90;;;12.30;99.90;;;;;;5090833;28;20915;-71
2023/03/24 00:48:43;;;;;;;1999.90;999.90;;;12.30;99.90;;;;;;5088458;28;20426;-71
2023/03/24 00:51:10;;;;;;;1999.90;999.90;;;12.30;99.90;;;;;;5107704;28;20452;-70
2023/03/24 00:53:42;;;;;;;1999.90;999.90;;;12.30;99.90;;;;;;5090771;28;20892;-71
2023/03/24 00:56:10;;;;;;;1999.90;999.90;;;12.30;99.90;;;;;;5105644;28;20410;-74
2023/03/24 00:58:37;;;;;;;1999.90;999.90;;;12.30;99.90;;;;;;5092193;28;20435;-71
2023/03/24 01:01:05;;;;;;;1999.90;999.90;;;12.30;99.90;;;;;;5100005;28;20437;-70
2023/03/24 01:03:33;;;;;;;1999.90;999.90;;;12.30;99.90;;;;;;5093507;28;20463;-68
2023/03/24 01:06:02;;;;;;;1999.90;999.90;;;12.30;99.90;;;;;;5073865;28;20423;-69
2023/03/24 01:08:31;;;;;;;1999.90;999.90;;;12.40;99.90;;;;;;5079913;28;21348;-68
2023/03/24 01:11:00;;;;;;;1999.90;999.90;;;12.30;99.90;;;;;;5086106;28;20441;-69
2023/03/24 01:13:27;;;;;;;1999.90;999.90;;;12.30;99.90;;;;;;5081658;28;20419;-71
2023/03/24 01:15:54;;;;;;;1999.90;999.90;;;12.40;99.90;;;;;;5074749;28;20414;-69
2023/03/24 01:18:23;;;;;;;1999.90;999.90;;;12.40;99.90;;;;;;5090337;28;20915;-68
2023/03/24 01:20:53;;;;;;;1999.90;999.90;;;12.40;99.90;;;;;;5078730;28;20411;-68
2023/03/24 01:23:22;;;;;;;1999.90;999.90;;;12.50;99.90;;;;;;5085671;28;20456;-69
2023/03/24 01:25:50;;;;;;;1999.90;999.90;;;12.50;99.90;;;;;;5079275;28;20420;-69
2023/03/24 01:28:20;;;;;;;1999.90;999.90;;;12.50;99.90;;;;;;5083119;28;20415;-68
2023/03/24 01:30:47;;;;;;;1999.90;999.90;;;12.40;99.90;;;;;;5081940;28;20421;-68
2023/03/24 01:33:13;;;;;;;1999.90;999.90;;;12.50;99.90;;;;;;5090241;28;20436;-68
2023/03/24 01:35:40;;;;;;;1999.90;999.90;;;12.50;99.90;;;;;;5077983;28;21027;-68
2023/03/24 01:38:10;;;;;;;1999.90;999.90;;;12.40;99.90;;;;;;5078974;28;20451;-68
2023/03/24 01:40:39;;;;;;;1999.90;999.90;;;12.50;99.90;;;;;;5079877;28;20423;-69
2023/03/24 01:43:07;;;;;;;1999.90;999.90;;;12.50;99.90;;;;;;5084237;28;20413;-71
2023/03/24 01:45:48;;;;;;;1999.90;999.90;;;12.40;99.90;;;;;;5088442;28;20422;-69
2023/03/24 01:48:20;;;;;;;1999.90;999.90;;;12.60;99.90;;;;;;5078087;28;20486;-69
2023/03/24 01:50:53;;;;;;;1999.90;999.90;;;12.60;99.90;;;;;;5081840;28;20413;-69
2023/03/24 01:53:22;;;;;;;1999.90;999.90;;;12.80;99.90;;;;;;5073868;28;20415;-68
2023/03/24 01:55:49;;;;;;;1999.90;999.90;;;12.90;99.90;;;;;;5090101;28;20432;-68
2023/03/24 01:58:16;;;;;;;1999.90;999.90;;;13.00;99.90;;;;;;5082824;28;20489;-68
2023/03/24 02:00:43;;;;;;;1999.90;999.90;;;13.00;99.90;;;;;;5081947;28;20499;-69
2023/03/24 02:03:14;;;;;;;1999.90;999.90;;;12.90;99.90;;;;;;5072470;28;20419;-69
2023/03/24 02:05:44;;;;;;;1999.90;999.90;;;13.00;99.90;;;;;;5089864;28;20487;-68
2023/03/24 02:08:15;;;;;;;1999.90;999.90;;;13.10;99.90;;;;;;5079858;28;20448;-69
2023/03/24 02:10:44;;;;;;;1999.90;999.90;;;12.90;99.90;;;;;;5082781;28;20502;-71
2023/03/24 02:13:10;;;;;;;1999.90;999.90;;;12.90;99.90;;;;;;5086369;28;20428;-69
2023/03/24 02:15:43;;;;;;;1999.90;999.90;;;12.90;99.90;;;;;;5088827;28;20463;-68
2023/03/24 02:18:17;;;;;;;1999.90;999.90;;;12.70;99.90;;;;;;5093374;28;20952;-68
2023/03/24 02:21:12;;;;;;;1999.90;999.90;;;12.60;99.90;;;;;;5093697;28;20470;-72
2023/03/24 02:23:55;;;;;;;1999.90;999.90;;;12.70;99.90;;;;;;5088821;28;20435;-69
2023/03/24 02:26:58;;;;;;;1999.90;999.90;;;12.50;99.90;;;;;;5081311;28;20426;-68
2023/03/24 02:30:00;;;;;;;1999.90;999.90;;;12.50;99.90;;;;;;5073153;28;20882;-69
2023/03/24 02:33:09;;;;;;;1999.90;999.90;;;12.40;99.90;;;;;;5073013;28;20477;-69
2023/03/24 02:36:02;;;;;;;1999.90;999.90;;;12.40;99.90;;;;;;5027591;28;20464;-68
2023/03/24 02:38:57;;;;;;;1999.90;999.90;;;12.40;99.90;;;;;;5081313;28;20504;-69
2023/03/24 02:41:31;;;;;;;1999.90;999.90;;;12.50;99.90;;;;;;5073329;28;20833;-73
2023/03/24 02:44:05;;;;;;;1999.90;999.90;;;12.80;99.90;;;;;;5078719;28;20447;-71
2023/03/24 02:46:38;;;;;;;1999.90;999.90;;;13.00;99.90;;;;;;5078547;28;20499;-71
2023/03/24 02:49:18;;;;;;;1999.90;999.90;;;13.10;99.90;;;;;;5084290;28;20984;-69
2023/03/24 02:51:51;;;;;;;1999.90;999.90;;;13.30;99.90;;;;;;5088923;28;20853;-69
2023/03/24 02:54:23;;;;;;;1999.90;999.90;;;13.40;99.90;;;;;;5084057;28;20438;-68
2023/03/24 02:56:55;;;;;;;1999.90;999.90;;;13.40;99.90;;;;;;5075905;28;20420;-68
2023/03/24 02:59:31;;;;;;;1999.90;999.90;;;13.50;99.90;;;;;;5072633;28;20836;-68
2023/03/24 03:02:01;;;;;;;1999.90;999.90;;;13.50;99.90;;;;;;5082880;28;20414;-68
2023/03/24 03:04:31;;;;;;;1999.90;999.90;;;13.50;99.90;;;;;;5072599;28;20411;-68
2023/03/24 03:07:08;;;;;;;1999.90;999.90;;;13.50;99.90;;;;;;5072401;28;20964;-69
2023/03/24 03:09:37;;;;;;;1999.90;999.90;;;13.50;99.90;;;;;;5072499;28;20431;-67
2023/03/24 03:12:09;;;;;;;1999.90;999.90;;;13.70;99.90;;;;;;5077734;28;20855;-71
2023/03/24 03:14:39;;;;;;;1999.90;999.90;;;13.60;99.90;;;;;;5132741;22;20428;-72
2023/03/24 03:17:09;;;;;;;1999.90;999.90;;;13.50;99.90;;;;;;5111916;28;20400;-72
2023/03/24 03:19:40;;;;;;;1999.90;999.90;;;13.50;99.90;;;;;;5113240;28;20442;-71
2023/03/24 03:22:10;;;;;;;1999.90;999.90;;;13.50;99.90;;;;;;5107119;28;20942;-68
2023/03/24 03:24:39;;;;;;;1999.90;999.90;;;13.60;99.90;;;;;;5112747;28;20412;-72
2023/03/24 03:27:13;;;;;;;1999.90;999.90;;;13.70;99.90;;;;;;5112817;28;20412;-71
2023/03/24 03:29:44;;;;;;;1999.90;999.90;;;13.80;99.90;;;;;;5112710;28;20408;-71
2023/03/24 03:32:14;;;;;;;1999.90;999.90;;;13.80;99.90;;;;;;5113068;28;20469;-72
2023/03/24 03:34:46;;;;;;;1999.90;999.90;;;13.80;99.90;;;;;;5111245;28;20424;-71
2023/03/24 03:37:21;;;;;;;1999.90;999.90;;;13.80;99.90;;;;;;5112369;28;20953;-71
2023/03/24 03:39:52;;;;;;;1999.90;999.90;;;13.80;99.90;;;;;;5112363;28;20524;-72
2023/03/24 03:42:20;;;;;;;1999.90;999.90;;;13.70;99.90;;;;;;5112877;28;20408;-71
2023/03/24 03:44:47;;;;;;;1999.90;999.90;;;13.70;99.90;;;;;;5111696;28;20424;-71
2023/03/24 03:47:14;;;;;;;1999.90;999.90;;;13.70;99.90;;;;;;5112198;28;20489;-73
2023/03/24 03:49:41;;;;;;;1999.90;999.90;;;13.70;99.90;;;;;;5111736;28;20424;-71
2023/03/24 03:52:08;;;;;;;1999.90;999.90;;;13.80;99.90;;;;;;5112178;28;20496;-72
2023/03/24 03:54:37;;;;;;;1999.90;999.90;;;13.90;99.90;;;;;;5111958;28;20406;-72
2023/03/24 03:57:04;;;;;;;1999.90;999.90;;;13.90;99.90;;;;;;5111385;28;20451;-71
2023/03/24 03:59:34;;;;;;;1999.90;999.90;;;13.90;99.90;;;;;;5111920;28;20809;-72
2023/03/24 04:02:11;;;;;;;1999.90;999.90;;;13.90;99.90;;;;;;5111927;28;20415;-69
2023/03/24 04:05:08;;;;;;;1999.90;999.90;;;14.00;99.90;;;;;;5111799;28;20460;-71
2023/03/24 04:07:45;;;;;;;1999.90;999.90;;;13.90;99.90;;;;;;5111912;28;20408;-72
2023/03/24 04:10:21;;;;;;;1999.90;999.90;;;13.90;99.90;;;;;;5103401;28;20428;-72
2023/03/24 04:13:06;;;;;;;1999.90;999.90;;;13.90;99.90;;;;;;5106120;28;20455;-72
2023/03/24 04:15:41;;;;;;;1999.90;999.90;;;13.70;99.90;;;;;;5096731;28;20404;-71
2023/03/24 04:18:38;;;;;;;1999.90;999.90;;;13.50;99.90;;;;;;5111286;28;20975;-72
2023/03/24 04:21:12;;;;;;;1999.90;999.90;;;13.30;99.90;;;;;;5110796;28;20503;-71
2023/03/24 04:23:48;;;;;;;1999.90;999.90;;;13.10;99.90;;;;;;5111092;28;20404;-72
2023/03/24 04:26:25;;;;;;;1999.90;999.90;;;13.30;99.90;;;;;;5110852;28;20493;-71
2023/03/24 04:28:59;;;;;;;1999.90;999.90;;;13.20;99.90;;;;;;5111421;28;20941;-70
2023/03/24 04:31:32;;;;;;;1999.90;999.90;;;13.10;99.90;;;;;;5095765;28;20412;-69
2023/03/24 04:34:03;;;;;;;1999.90;999.90;;;12.90;99.90;;;;;;5103028;28;20439;-73
2023/03/24 04:36:41;;;;;;;1999.90;999.90;;;12.90;99.90;;;;;;5111626;28;20438;-71
2023/03/24 04:39:11;;;;;;;1999.90;999.90;;;12.90;99.90;;;;;;5111126;28;20424;-71
2023/03/24 04:41:39;;;;;;;1999.90;999.90;;;13.00;99.90;;;;;;5111165;28;20496;-71
2023/03/24 04:44:07;;;;;;;1999.90;999.90;;;13.00;99.90;;;;;;5110930;28;20404;-71
2023/03/24 04:46:35;;;;;;;1999.90;999.90;;;13.20;99.90;;;;;;5109873;28;20473;-73
2023/03/24 04:49:03;;;;;;;1999.90;999.90;;;13.20;99.90;;;;;;5110972;28;20417;-71
2023/03/24 04:51:31;;;;;;;1999.90;999.90;;;13.20;99.90;;;;;;5111137;28;20439;-71
2023/03/24 04:53:58;;;;;;;1999.90;999.90;;;13.40;99.90;;;;;;5110782;28;20469;-71
2023/03/24 04:56:33;;;;;;;1999.90;999.90;;;13.60;99.90;;;;;;5110789;28;20403;-72
2023/03/24 04:58:59;;;;;;;1999.90;999.90;;;13.70;99.90;;;;;;5107592;28;20432;-70
2023/03/24 05:01:28;;;;;;;1999.90;999.90;;;13.90;99.90;;;;;;5111056;28;20408;-74
2023/03/24 05:03:57;;;;;;;1999.90;999.90;;;13.90;99.90;;;;;;5110763;28;20419;-72
2023/03/24 05:06:24;;;;;;;1999.90;999.90;;;13.80;99.90;;;;;;5110651;28;20462;-72
2023/03/24 05:08:51;;;;;;;1999.90;999.90;;;13.90;99.90;;;;;;5109442;28;21118;-71
2023/03/24 05:11:19;;;;;;;1999.90;999.90;;;14.00;99.90;;;;;;5110237;28;20416;-71
2023/03/24 05:13:46;;;;;;;1999.90;999.90;;;13.90;99.90;;;;;;5102346;28;20508;-72
2023/03/24 05:16:13;;;;;;;1999.90;999.90;;;13.90;99.90;;;;;;5109147;28;20408;-69
2023/03/24 05:18:40;;;;;;;1999.90;999.90;;;13.90;99.90;;;;;;5110461;28;20424;-69
2023/03/24 05:21:08;;;;;;;1999.90;999.90;;;13.90;99.90;;;;;;5109777;28;20424;-71
2023/03/24 05:23:35;;;;;;;1999.90;999.90;;;14.00;99.90;;;;;;5110132;28;20951;-71
2023/03/24 05:26:02;;;;;;;1999.90;999.90;;;13.90;99.90;;;;;;5110461;28;20415;-71
2023/03/24 05:28:28;;;;;;;1999.90;999.90;;;13.80;99.90;;;;;;5110550;28;20426;-71
2023/03/24 05:30:55;;;;;;;1999.90;999.90;;;13.70;99.90;;;;;;5110553;28;20402;-71
2023/03/24 05:33:22;;;;;;;1999.90;999.90;;;13.80;99.90;;;;;;5109663;28;20432;-67
2023/03/24 05:35:48;;;;;;;1999.90;999.90;;;13.80;99.90;;;;;;5110557;28;20907;-72
2023/03/24 05:38:17;;;;;;;1999.90;999.90;;;13.70;99.90;;;;;;5110190;28;20420;-72
2023/03/24 05:40:43;;;;;;;1999.90;999.90;;;13.80;99.90;;;;;;5114161;28;20785;-68
2023/03/24 05:43:11;;;;;;;1999.90;999.90;;;13.90;99.90;;;;;;5114526;28;20481;-71
2023/03/24 05:45:37;;;;;;;1999.90;999.90;;;13.80;99.90;;;;;;5113793;28;20866;-71
2023/03/24 05:48:05;;;;;;;1999.90;999.90;;;13.80;99.90;;;;;;5114280;28;20412;-67
2023/03/24 05:50:32;;;;;;;1999.90;999.90;;;13.90;99.90;;;;;;5114535;28;20461;-70
2023/03/24 05:53:00;;;;;;;1999.90;999.90;;;13.90;99.90;;;;;;5114029;28;20783;-68
2023/03/24 05:55:29;;;;;;;1999.90;999.90;;;13.90;99.90;;;;;;5114473;28;21014;-68
2023/03/24 05:57:56;;;;;;;1999.90;999.90;;;14.00;99.90;;;;;;5107087;28;20422;-68
2023/03/24 06:00:23;;;;;;;1999.90;999.90;;;13.90;99.90;;;;;;5114457;27;20465;-69
2023/03/24 06:02:50;;;;;;;1999.90;999.90;;;14.30;99.90;;;;;;5125979;27;20464;-69
2023/03/24 06:05:17;;;;;;;1999.90;999.90;;;13.90;99.90;;;;;;5135043;27;20784;-69
2023/03/24 06:07:45;;;;;;;1999.90;999.90;;;13.80;99.90;;;;;;5134951;27;20411;-69
2023/03/24 06:10:13;;;;;;;1999.90;999.90;;;13.60;99.90;;;;;;5118101;27;20426;-69
2023/03/24 06:12:41;;;;;;;1999.90;999.90;;;13.70;99.90;;;;;;5114358;27;20412;-67
2023/03/24 06:15:09;;;;;;;1999.90;999.90;;;13.90;99.90;;;;;;5114497;28;20412;-69
2023/03/24 06:17:37;;;;;;;1999.90;999.90;;;14.00;99.90;;;;;;5114076;28;20407;-69
2023/03/24 06:20:07;;;;;;;1999.90;999.90;;;14.00;99.90;;;;;;5113937;28;20430;-69
2023/03/24 06:22:35;;;;;;;1999.90;999.90;;;14.00;99.90;;;;;;5108899;28;20428;-69
2023/03/24 06:25:03;;;;;;;1999.90;999.90;;;14.30;99.90;;;;;;5113942;28;20464;-69
2023/03/24 06:27:30;;;;;;;1999.90;999.90;;;14.00;99.90;;;;;;5114129;28;20427;-69
2023/03/24 06:29:58;;;;;;;1999.90;999.90;;;14.00;99.90;;;;;;5113928;28;20819;-71
2023/03/24 06:32:26;;;;;;;1999.90;999.90;;;14.10;99.90;;;;;;5113751;28;20481;-69
2023/03/24 06:34:53;;;;;;;1999.90;999.90;;;14.20;99.90;;;;;;5112579;28;20478;-71
2023/03/24 06:37:22;;;;;;;1999.90;999.90;;;14.20;99.90;;;;;;5113614;28;20420;-71
2023/03/24 06:39:49;;;;;;;1999.90;999.90;;;14.10;99.90;;;;;;5121010;27;20510;-68
2023/03/24 06:42:17;;;;;;;1999.90;999.90;;;14.10;99.90;;;;;;5117211;27;20546;-71
2023/03/24 06:44:44;;;;;;;1999.90;999.90;;;14.10;99.90;;;;;;5122161;27;20489;-71
2023/03/24 06:47:11;;;;;;;1999.90;999.90;;;14.10;99.90;;;;;;5107063;27;20428;-71
2023/03/24 06:49:38;;;;;;;1999.90;999.90;;;14.10;99.90;;;;;;5112600;28;20404;-71
2023/03/24 06:52:05;;;;;;;1999.90;999.90;;;14.10;99.90;;;;;;5112186;28;20461;-72
2023/03/24 06:54:31;;;;;;;1999.90;999.90;;;14.10;99.90;;;;;;5112369;27;20473;-71
2023/03/24 06:56:58;;;;;;;1999.90;999.90;;;14.30;99.90;;;;;;5112713;28;20506;-68
2023/03/24 06:59:25;;;;;;;1999.90;999.90;;;14.20;99.90;;;;;;5111676;28;20913;-71
2023/03/24 07:01:52;;;;;;;1999.90;999.90;;;14.30;99.90;;;;;;5112382;28;20416;-72
2023/03/24 07:04:24;;;;;;;1999.90;999.90;;;14.20;99.90;;;;;;5106693;28;20450;-72
2023/03/24 07:06:51;;;;;;;1999.90;999.90;;;14.30;99.90;;;;;;5104123;28;20518;-71
2023/03/24 07:09:18;;;;;;;1999.90;999.90;;;14.40;99.90;;;;;;5099437;28;20477;-71
2023/03/24 07:11:45;;;;;;;1999.90;999.90;;;14.40;99.90;;;;;;5105964;28;20454;-71
2023/03/24 07:14:11;;;;;;;1999.90;999.90;;;14.50;99.90;;;;;;5109666;28;20416;-71
2023/03/24 07:16:38;;;;;;;1999.90;999.90;;;14.50;99.90;;;;;;5110451;28;20412;-71
2023/03/24 07:19:05;;;;;;;1999.90;999.90;;;14.60;99.90;;;;;;5111390;28;20502;-71
2023/03/24 07:21:33;;;;;;;1999.90;999.90;;;14.60;99.90;;;;;;5110809;28;20431;-71
2023/03/24 07:24:01;;;;;;;1999.90;999.90;;;14.70;99.90;;;;;;5111655;28;20897;-71
2023/03/24 07:26:27;;;;;;;1999.90;999.90;;;14.60;99.90;;;;;;5111965;28;20416;-70
2023/03/24 07:28:54;;;;;;;1999.90;999.90;;;14.60;99.90;;;;;;5111891;28;20813;-71
2023/03/24 07:31:21;;;;;;;1999.90;999.90;;;14.70;99.90;;;;;;5111832;28;20846;-71
2023/03/24 07:33:48;;;;;;;1999.90;999.90;;;14.60;99.90;;;;;;5110868;28;20903;-73
2023/03/24 07:36:15;;;;;;;1999.90;999.90;;;14.60;99.90;;;;;;5112254;28;20825;-69
2023/03/24 07:38:43;;;;;;;1999.90;999.90;;;14.70;99.90;;;;;;5112537;28;20499;-69
2023/03/24 07:41:10;;;;;;;1999.90;999.90;;;14.70;99.90;;;;;;5112613;28;20882;-69
2023/03/24 07:43:36;;;;;;;1999.90;999.90;;;14.70;99.90;;;;;;5111847;28;20506;-71
2023/03/24 07:46:03;;;;;;;1999.90;999.90;;;14.70;99.90;;;;;;5110989;28;20412;-70
2023/03/24 07:48:30;;;;;;;1999.90;999.90;;;14.80;99.90;;;;;;5111411;28;20412;-69
2023/03/24 07:50:56;;;;;;;1999.90;999.90;;;15.00;99.90;;;;;;5112058;28;20454;-68
2023/03/24 07:53:23;;;;;;;1999.90;999.90;;;14.80;99.90;;;;;;5111832;28;20894;-71
2023/03/24 07:55:51;;;;;;;1999.90;999.90;;;14.90;99.90;;;;;;5112612;28;20408;-70
2023/03/24 07:58:18;;;;;;;1999.90;999.90;;;15.00;99.90;;;;;;5110918;28;20465;-69
2023/03/24 08:00:44;;;;;;;1999.90;999.90;;;14.90;99.90;;;;;;5111423;28;20449;-72
2023/03/24 08:03:13;;;;;;;1999.90;999.90;;;14.90;99.90;;;;;;5111357;28;20412;-70
2023/03/24 08:05:42;;;;;;;1999.90;999.90;;;14.90;99.90;;;;;;5112202;28;20515;-70
2023/03/24 08:08:09;;;;;;;1999.90;999.90;;;15.00;99.90;;;;;;5111584;28;20431;-69
2023/03/24 08:10:36;;;;;;;1999.90;999.90;;;14.90;99.90;;;;;;5107169;28;20483;-72
2023/03/24 08:13:04;;;;;;;1999.90;999.90;;;14.70;99.90;;;;;;5108577;28;20419;-72
2023/03/24 08:15:31;;;;;;;1999.90;999.90;;;14.50;99.90;;;;;;5110909;28;20499;-72
2023/03/24 08:17:58;;;;;;;1999.90;999.90;;;14.40;99.90;;;;;;5111210;28;20408;-71
2023/03/24 08:20:28;;;;;;;1999.90;999.90;;;14.40;99.90;;;;;;5110993;28;20465;-72
2023/03/24 08:22:55;;;;;;;1999.90;999.90;;;14.40;99.90;;;;;;5110575;28;20428;-71
2023/03/24 08:25:24;;;;;;;1999.90;999.90;;;14.40;99.90;;;;;;5110913;28;20441;-72
2023/03/24 08:27:51;;;;;;;1999.90;999.90;;;14.30;99.90;;;;;;5111441;28;20507;-70
2023/03/24 08:30:22;;;;;;;1999.90;999.90;;;14.40;99.90;;;;;;5111232;28;20963;-74
2023/03/24 08:32:51;;;;;;;1999.90;999.90;;;14.40;99.90;;;;;;5111654;28;20469;-69
2023/03/24 08:35:20;;;;;;;1999.90;999.90;;;14.50;99.90;;;;;;5111052;28;20484;-70
2023/03/24 08:37:46;;;;;;;1999.90;999.90;;;14.50;99.90;;;;;;5111567;28;20423;-70
2023/03/24 08:40:18;;;;;;;1999.90;999.90;;;14.70;99.90;;;;;;5111906;28;20428;-69
2023/03/24 08:42:47;;;;;;;1999.90;999.90;;;14.70;99.90;;;;;;5111802;28;20416;-74
2023/03/24 08:45:14;;;;;;;1999.90;999.90;;;14.70;99.90;;;;;;5111048;28;20457;-72
2023/03/24 08:47:42;;;;;;;1999.90;999.90;;;14.90;99.90;;;;;;5110099;28;20514;-72
2023/03/24 08:50:10;;;;;;;1999.90;999.90;;;15.00;99.90;;;;;;5110976;28;20828;-70
2023/03/24 08:52:36;;;;;;;1999.90;999.90;;;15.20;99.90;;;;;;5111132;28;20416;-70
2023/03/24 08:55:03;;;;;;;1999.90;999.90;;;15.10;99.90;;;;;;5111810;28;20420;-74
2023/03/24 08:57:31;;;;;;;1999.90;999.90;;;15.20;99.90;;;;;;5111620;28;20957;-70
2023/03/24 08:59:57;;;;;;;1999.90;999.90;;;15.40;99.90;;;;;;5108300;28;20431;-71
2023/03/24 09:02:24;;;;;;;1999.90;999.90;;;15.60;99.90;;;;;;5111189;28;20416;-69
2023/03/24 09:04:54;;;;;;;1999.90;999.90;;;15.90;99.90;;;;;;5110592;28;20525;-70
2023/03/24 09:07:21;;;;;;;1999.90;999.90;;;16.00;99.90;;;;;;5111050;28;20415;-70
2023/03/24 09:09:48;;;;;;;1999.90;999.90;;;15.90;99.90;;;;;;5110551;28;20466;-69
2023/03/24 09:12:15;;;;;;;1999.90;999.90;;;15.90;99.90;;;;;;5111175;28;20507;-71
2023/03/24 09:14:41;;;;;;;1999.90;999.90;;;15.40;99.90;;;;;;5168638;22;20444;-64
2023/03/24 09:17:09;;;;;;;1999.90;999.90;;;15.30;99.90;;;;;;5129696;27;20419;-65
2023/03/24 09:19:35;;;;;;;1999.90;999.90;;;15.00;99.90;;;;;;5115827;28;20480;-64
2023/03/24 09:22:03;;;;;;;1999.90;999.90;;;15.20;99.90;;;;;;5110523;28;20466;-64
2023/03/24 09:24:30;;;;;;;1999.90;999.90;;;15.40;99.90;;;;;;5113080;28;20428;-64
2023/03/24 09:26:57;;;;;;;1999.90;999.90;;;15.40;99.90;;;;;;5122340;28;20412;-65
2023/03/24 09:29:23;;;;;;;1999.90;999.90;;;15.50;99.90;;;;;;5110634;28;20408;-65
2023/03/24 09:31:52;;;;;;;1999.90;999.90;;;15.30;99.90;;;;;;5110619;28;20832;-64
2023/03/24 09:34:19;;;;;;;1999.90;999.90;;;15.30;99.90;;;;;;5110023;28;20408;-64
2023/03/24 09:36:46;;;;;;;1999.90;999.90;;;15.20;99.90;;;;;;5115182;28;20415;-64
2023/03/24 09:39:14;;;;;;;1999.90;999.90;;;15.20;99.90;;;;;;5131015;28;20464;-65
2023/03/24 09:41:44;;;;;;;1999.90;999.90;;;15.10;99.90;;;;;;5131223;28;20412;-64
2023/03/24 09:44:17;;;;;;;1999.90;999.90;;;15.00;99.90;;;;;;5129674;28;20471;-64
2023/03/24 09:46:49;;;;;;;1999.90;999.90;;;15.20;99.90;;;;;;5116690;28;20416;-64
2023/03/24 09:49:22;;;;;;;1999.90;999.90;;;15.20;99.90;;;;;;5110134;28;20433;-64
2023/03/24 09:51:53;;;;;;;1999.90;999.90;;;15.20;99.90;;;;;;5110507;28;20438;-65
2023/03/24 09:54:28;;;;;;;1999.90;999.90;;;15.50;99.90;;;;;;5111044;28;20468;-64
2023/03/24 09:56:57;;;;;;;1999.90;999.90;;;15.60;99.90;;;;;;5110192;28;20446;-62
2023/03/24 09:59:33;;;;;;;1999.90;999.90;;;15.70;99.90;;;;;;5110284;28;20415;-65
2023/03/24 10:02:00;;;;;;;1999.90;999.90;;;16.00;99.90;;;;;;5110250;28;20473;-64
2023/03/24 10:04:30;;;;;;;1999.90;999.90;;;16.20;99.90;;;;;;5109922;28;20419;-64
2023/03/24 10:07:03;;;;;;;1999.90;999.90;;;16.00;99.90;;;;;;5111435;28;20515;-64
2023/03/24 10:09:35;;;;;;;1999.90;999.90;;;15.80;99.90;;;;;;5118562;28;20420;-64
2023/03/24 10:12:16;;;;;;;1999.90;999.90;;;15.60;99.90;;;;;;5110172;28;20416;-65
2023/03/24 10:15:01;;;;;;;1999.90;999.90;;;15.40;99.90;;;;;;5113350;28;20422;-64
2023/03/24 10:17:38;;;;;;;1999.90;999.90;;;15.60;99.90;;;;;;5120588;28;20418;-64
2023/03/24 10:20:15;;;;;;;1999.90;999.90;;;16.00;99.90;;;;;;5123645;28;20475;-64
2023/03/24 10:22:51;;;;;;;1999.90;999.90;;;16.40;99.90;;;;;;5120400;28;20411;-65
2023/03/24 10:25:24;;;;;;;1999.90;999.90;;;16.30;99.90;;;;;;5126895;27;20853;-63
2023/03/24 10:27:55;;;;;;;1999.90;999.90;;;16.30;99.90;;;;;;5125950;27;20826;-65
2023/03/24 10:30:26;;;;;;;1999.90;999.90;;;16.40;99.90;;;;;;5123189;27;20421;-64
2023/03/24 10:32:53;;;;;;;1999.90;999.90;;;16.50;99.90;;;;;;5128626;27;20463;-64
2023/03/24 10:35:24;;;;;;;1999.90;999.90;;;16.80;99.90;;;;;;5121588;27;20481;-64
2023/03/24 10:37:52;;;;;;;1999.90;999.90;;;17.00;99.90;;;;;;5118243;27;20983;-64
2023/03/24 10:40:25;;;;;;;1999.90;999.90;;;17.30;99.90;;;;;;5118927;27;20986;-64
2023/03/24 10:42:52;;;;;;;1999.90;999.90;;;17.50;99.90;;;;;;5118106;27;20482;-64
2023/03/24 10:45:26;;;;;;;1999.90;999.90;;;17.40;99.90;;;;;;5121233;27;20414;-64
2023/03/24 10:47:56;;;;;;;1999.90;999.90;;;17.40;99.80;;;;;;5113211;28;20412;-64
2023/03/24 10:50:26;;;;;;;1999.90;999.90;;;16.90;99.90;;;;;;5113318;28;20404;-65
2023/03/24 10:52:54;;;;;;;1999.90;999.90;;;16.90;99.90;;;;;;5118006;27;20422;-65
2023/03/24 10:55:30;;;;;;;1999.90;999.90;;;16.80;99.90;;;;;;5124291;27;20420;-65
2023/03/24 10:57:59;;;;;;;1999.90;999.90;;;16.90;99.90;;;;;;5112821;28;20420;-64
2023/03/24 11:00:30;;;;;;;1999.90;999.90;;;16.60;99.90;;;;;;5112922;28;20963;-64
2023/03/24 11:03:00;;;;;;;1999.90;999.90;;;16.50;99.90;;;;;;5115362;27;20852;-63
2023/03/24 11:05:30;;;;;;;1999.90;999.90;;;16.20;99.90;;;;;;5121508;27;20503;-63
2023/03/24 11:08:12;;;;;;;1999.90;999.90;;;15.90;99.90;;;;;;5119986;27;20892;-64
2023/03/24 11:10:40;;;;;;;1999.90;999.90;;;16.10;99.90;;;;;;5112554;27;20416;-64
2023/03/24 11:13:17;;;;;;;1999.90;999.90;;;16.50;99.40;;;;;;5114836;27;20431;-64
2023/03/24 11:15:53;;;;;;;1999.90;999.90;;;16.70;98.30;;;;;;5120537;27;20416;-64
2023/03/24 11:18:21;;;;;;;1999.90;999.90;;;16.60;98.70;;;;;;5112140;28;20408;-64
2023/03/24 11:20:59;;;;;;;1999.90;999.90;;;16.80;98.70;;;;;;5113711;27;20424;-65
2023/03/24 11:23:30;;;;;;;1999.90;999.90;;;17.10;98.80;;;;;;5124037;27;20418;-64
2023/03/24 11:26:08;;;;;;;1999.90;999.90;;;17.10;97.70;;;;;;5125326;27;20412;-65
2023/03/24 11:28:39;;;;;;;1999.90;999.90;;;17.00;97.10;;;;;;5128318;27;20416;-64
2023/03/24 11:31:09;;;;;;;1999.90;999.90;;;16.80;96.20;;;;;;5125170;27;20449;-64
2023/03/24 11:33:44;;;;;;;1999.90;999.90;;;17.00;95.80;;;;;;5124188;27;20422;-64
2023/03/24 11:36:42;;;;;;;1999.90;999.90;;;16.90;95.90;;;;;;5121170;27;20434;-64
2023/03/24 11:39:17;;;;;;;1999.90;999.90;;;16.80;95.30;;;;;;5123665;27;20406;-66
2023/03/24 11:42:03;;;;;;;1999.90;999.90;;;16.80;95.20;;;;;;5127770;27;20756;-65
2023/03/24 11:44:33;;;;;;;1999.90;999.90;;;17.00;95.00;;;;;;5124553;27;20917;-64
2023/03/24 11:47:04;;;;;;;1999.90;999.90;;;17.20;95.10;;;;;;5125720;27;20417;-64
2023/03/24 11:49:35;;;;;;;1999.90;999.90;;;17.30;95.10;;;;;;5123711;27;20529;-65
2023/03/24 11:52:04;;;;;;;1999.90;999.90;;;17.30;94.80;;;;;;5123503;27;20763;-65
2023/03/24 11:54:35;;;;;;;1999.90;999.90;;;17.30;95.40;;;;;;5126494;27;20513;-64
2023/03/24 11:57:09;;;;;;;1999.90;999.90;;;17.30;95.20;;;;;;5124696;27;20481;-65
2023/03/24 11:59:42;;;;;;;1999.90;999.90;;;17.40;95.40;;;;;;5122858;27;20430;-65
2023/03/24 12:02:19;;;;;;;1999.90;999.90;;;17.70;96.20;;;;;;5126362;27;20427;-65
2023/03/24 12:05:03;;;;;;;1999.90;999.90;;;18.10;95.80;;;;;;5121319;27;20475;-65
2023/03/24 12:08:04;;;;;;;1999.90;999.90;;;18.50;96.00;;;;;;5129311;27;20419;-66
2023/03/24 12:10:45;;;;;;;1999.90;999.90;;;19.00;94.70;;;;;;5128368;27;20906;-66
2023/03/24 12:13:17;;;;;;;1999.90;999.90;;;18.90;94.60;;;;;;5116886;27;20431;-64
2023/03/24 12:15:56;;;;;;;1999.90;999.90;;;18.40;95.50;;;;;;5120417;27;20871;-65